createdAt,value
2022-07-25T00:00:13.769Z,95781.59
2022-07-25T00:02:16.671Z,95786.84
2022-07-25T00:04:19.915Z,95781.78
2022-07-25T00:06:24.078Z,95778.34
2022-07-25T00:08:26.836Z,95757.59
2022-07-25T00:10:29.604Z,95785.09
2022-07-25T00:12:32.412Z,95779.06
2022-07-25T00:14:35.194Z,95783.34
2022-07-25T00:16:38.143Z,95790.25
2022-07-25T00:18:40.949Z,95791.94
2022-07-25T00:20:43.779Z,95785.38
2022-07-25T00:22:48.077Z,95788.38
2022-07-25T00:24:50.934Z,95787.63
2022-07-25T00:26:53.968Z,95767.94
2022-07-25T00:28:56.838Z,95784.44
2022-07-25T00:30:59.720Z,95789.00
2022-07-25T00:33:02.617Z,95779.59
2022-07-25T00:35:06.061Z,95773.78
2022-07-25T00:37:08.890Z,95777.69
2022-07-25T00:39:13.037Z,95767.97
2022-07-25T00:41:15.832Z,95741.66
2022-07-25T00:43:18.753Z,95766.00
2022-07-25T00:45:21.599Z,95773.56
2022-07-25T00:47:24.585Z,95762.94
2022-07-25T00:49:27.826Z,95769.44
2022-07-25T00:51:30.688Z,95762.78
2022-07-25T00:53:33.758Z,95763.00
2022-07-25T00:55:38.239Z,95761.63
2022-07-25T00:57:41.087Z,95753.81
2022-07-25T00:59:43.911Z,95760.63
2022-07-25T01:01:48.477Z,95757.97
2022-07-25T01:03:51.654Z,95713.44
2022-07-25T01:05:54.633Z,95753.72
2022-07-25T01:07:58.232Z,95754.25
2022-07-25T01:10:01.081Z,95745.25
2022-07-25T01:12:06.055Z,95759.00
2022-07-25T01:14:14.243Z,95751.47
2022-07-25T01:16:17.304Z,95742.31
2022-07-25T01:18:20.196Z,95749.09
2022-07-25T01:20:25.714Z,95751.84
2022-07-25T01:22:28.493Z,95756.09
2022-07-25T01:24:31.346Z,95746.22
2022-07-25T01:26:34.201Z,95755.44
2022-07-25T01:28:36.994Z,95747.50
2022-07-25T01:30:39.830Z,95748.66
2022-07-25T01:32:44.421Z,95744.19
2022-07-25T01:34:47.222Z,95736.41
2022-07-25T01:36:51.320Z,95739.34
2022-07-25T01:38:54.343Z,95718.78
2022-07-25T01:40:57.271Z,95736.28
2022-07-25T01:43:00.096Z,95735.41
2022-07-25T01:45:04.366Z,95739.50
2022-07-25T01:47:07.314Z,95728.16
2022-07-25T01:49:10.289Z,95733.06
2022-07-25T01:51:13.186Z,95738.31
2022-07-25T01:53:17.380Z,95751.38
2022-07-25T01:55:20.327Z,95742.66
2022-07-25T01:57:23.268Z,95738.56
2022-07-25T01:59:33.043Z,95726.66
2022-07-25T02:01:35.890Z,95733.63
2022-07-25T02:03:38.914Z,95735.72
2022-07-25T02:05:42.460Z,95728.25
2022-07-25T02:07:45.286Z,95737.19
2022-07-25T02:09:54.803Z,95715.34
2022-07-25T02:11:59.576Z,95721.72
2022-07-25T02:14:02.545Z,95722.63
2022-07-25T02:16:05.947Z,95718.69
2022-07-25T02:18:08.805Z,95713.66
2022-07-25T02:20:12.812Z,95726.38
2022-07-25T02:22:15.779Z,95725.44
2022-07-25T02:24:18.653Z,95712.34
2022-07-25T02:26:22.777Z,95704.00
2022-07-25T02:28:25.606Z,95699.91
2022-07-25T02:30:28.734Z,95701.28
2022-07-25T02:32:31.619Z,95699.38
2022-07-25T02:34:34.440Z,95686.88
2022-07-25T02:36:37.278Z,95698.31
2022-07-25T02:38:40.393Z,95692.59
2022-07-25T02:40:43.189Z,95684.81
2022-07-25T02:42:47.398Z,95703.78
2022-07-25T02:44:50.199Z,95709.88
2022-07-25T02:46:52.975Z,95708.53
2022-07-25T02:48:56.076Z,95707.19
2022-07-25T02:50:58.938Z,95701.91
2022-07-25T02:53:01.814Z,95700.22
2022-07-25T02:55:09.471Z,95695.09
2022-07-25T02:57:12.551Z,95694.44
2022-07-25T02:59:16.763Z,95699.19
2022-07-25T03:01:19.641Z,95689.59
2022-07-25T03:03:22.475Z,95691.66
2022-07-25T03:05:25.441Z,95677.66
2022-07-25T03:07:28.890Z,95692.88
2022-07-25T03:09:31.600Z,95684.44
2022-07-25T03:11:34.706Z,95683.69
2022-07-25T03:13:37.509Z,95683.56
2022-07-25T03:15:41.726Z,95675.47
2022-07-25T03:17:44.535Z,95649.25
2022-07-25T03:19:47.299Z,95679.25
2022-07-25T03:21:50.038Z,95679.03
2022-07-25T03:23:53.046Z,95677.75
2022-07-25T03:25:55.958Z,95675.50
2022-07-25T03:27:58.821Z,95667.72
2022-07-25T03:30:01.642Z,95677.66
2022-07-25T03:32:06.850Z,95670.06
2022-07-25T03:34:09.914Z,95670.69
2022-07-25T03:36:12.787Z,95663.78
2022-07-25T03:38:15.702Z,95662.56
2022-07-25T03:40:18.438Z,95649.44
2022-07-25T03:42:26.367Z,95664.81
2022-07-25T03:44:29.430Z,95667.53
2022-07-25T03:46:32.218Z,95663.78
2022-07-25T03:48:36.446Z,95665.19
2022-07-25T03:50:39.250Z,95652.94
2022-07-25T03:52:42.007Z,95648.59
2022-07-25T03:54:44.768Z,95650.44
2022-07-25T03:56:50.354Z,95648.28
2022-07-25T03:58:53.145Z,95653.22
2022-07-25T04:00:55.975Z,95623.72
2022-07-25T04:03:01.499Z,95655.53
2022-07-25T04:05:06.334Z,95649.44
2022-07-25T04:07:09.072Z,95643.69
2022-07-25T04:09:15.682Z,95652.84
2022-07-25T04:11:18.660Z,95644.63
2022-07-25T04:13:21.380Z,95644.50
2022-07-25T04:15:24.205Z,95648.13
2022-07-25T04:17:26.971Z,95644.78
2022-07-25T04:19:29.812Z,95643.84
2022-07-25T04:21:34.127Z,95644.13
2022-07-25T04:23:36.977Z,95649.28
2022-07-25T04:25:39.851Z,95648.13
2022-07-25T04:27:43.234Z,95646.06
2022-07-25T04:29:45.979Z,95649.59
2022-07-25T04:31:48.985Z,95645.72
2022-07-25T04:33:51.986Z,95642.00
2022-07-25T04:35:55.102Z,95634.25
2022-07-25T04:37:59.257Z,95636.75
2022-07-25T04:40:02.059Z,95649.94
2022-07-25T04:42:05.287Z,95608.91
2022-07-25T04:44:09.103Z,95646.06
2022-07-25T04:46:12.281Z,95648.50
2022-07-25T04:48:15.207Z,95638.31
2022-07-25T04:50:21.759Z,95646.53
2022-07-25T04:52:27.433Z,95645.41
2022-07-25T04:54:31.886Z,95646.19
2022-07-25T04:56:34.725Z,95633.34
2022-07-25T04:58:37.626Z,95632.50
2022-07-25T05:00:40.597Z,95638.25
2022-07-25T05:02:44.065Z,95541.41
2022-07-25T05:04:46.894Z,95635.31
2022-07-25T05:06:54.861Z,95638.50
2022-07-25T05:08:57.646Z,95625.75
2022-07-25T05:11:01.815Z,95623.75
2022-07-25T05:13:04.733Z,95636.38
2022-07-25T05:15:08.839Z,95608.22
2022-07-25T05:17:11.729Z,95646.53
2022-07-25T05:19:14.531Z,95643.59
2022-07-25T05:21:17.288Z,95633.44
2022-07-25T05:23:20.097Z,95634.09
2022-07-25T05:25:22.898Z,95638.03
2022-07-25T05:27:27.015Z,95641.72
2022-07-25T05:29:29.882Z,95580.03
2022-07-25T05:31:32.731Z,95641.25
2022-07-25T05:33:35.677Z,95637.50
2022-07-25T05:35:39.282Z,95638.09
2022-07-25T05:37:42.102Z,95638.09
2022-07-25T05:39:44.940Z,95621.47
2022-07-25T05:41:47.671Z,95621.59
2022-07-25T05:43:52.609Z,95615.25
2022-07-25T05:46:00.637Z,95619.50
2022-07-25T05:48:03.447Z,95582.91
2022-07-25T05:50:07.778Z,95620.22
2022-07-25T05:52:13.092Z,95558.31
2022-07-25T05:54:16.340Z,95604.91
2022-07-25T05:56:19.126Z,95606.06
2022-07-25T05:58:25.016Z,95602.44
2022-07-25T06:00:33.357Z,95600.16
2022-07-25T06:02:36.398Z,95605.50
2022-07-25T06:04:39.293Z,95607.44
2022-07-25T06:06:42.032Z,95614.06
2022-07-25T06:08:45.360Z,95605.06
2022-07-25T06:10:48.270Z,95602.03
2022-07-25T06:12:51.094Z,95604.34
2022-07-25T06:14:54.394Z,95601.47
2022-07-25T06:16:58.531Z,95603.88
2022-07-25T06:19:01.322Z,95611.19
2022-07-25T06:21:04.321Z,95605.03
2022-07-25T06:23:07.504Z,95537.00
2022-07-25T06:25:11.223Z,95521.78
2022-07-25T06:27:18.472Z,95605.69
2022-07-25T06:29:23.243Z,95602.16
2022-07-25T06:31:26.118Z,95597.91
2022-07-25T06:33:30.469Z,95597.56
2022-07-25T06:35:33.331Z,95596.28
2022-07-25T06:37:38.169Z,95598.22
2022-07-25T06:39:45.510Z,95584.13
2022-07-25T06:41:48.749Z,95600.81
2022-07-25T06:43:53.629Z,95587.53
2022-07-25T06:45:56.445Z,95587.72
2022-07-25T06:47:59.212Z,95590.13
2022-07-25T06:50:03.382Z,95592.88
2022-07-25T06:52:06.817Z,95588.16
2022-07-25T06:54:10.173Z,95587.91
2022-07-25T06:56:17.455Z,95584.16
2022-07-25T06:58:22.916Z,95589.66
2022-07-25T07:00:28.948Z,95588.41
2022-07-25T07:02:31.788Z,95582.47
2022-07-25T07:04:34.598Z,95584.53
2022-07-25T07:06:39.889Z,95576.97
2022-07-25T07:08:42.827Z,95576.88
2022-07-25T07:10:45.636Z,95580.88
2022-07-25T07:12:48.669Z,95439.06
2022-07-25T07:14:51.844Z,95591.00
2022-07-25T07:16:54.691Z,95581.94
2022-07-25T07:18:57.796Z,95580.59
2022-07-25T07:21:00.582Z,95587.78
2022-07-25T07:23:04.946Z,95425.44
2022-07-25T07:25:09.305Z,95537.00
2022-07-25T07:27:13.100Z,95577.19
2022-07-25T07:29:16.288Z,95580.09
2022-07-25T07:31:19.466Z,95586.25
2022-07-25T07:33:22.576Z,95536.44
2022-07-25T07:35:25.703Z,95579.78
2022-07-25T07:37:36.583Z,95562.72
2022-07-25T07:39:43.034Z,95567.00
2022-07-25T07:41:46.292Z,95566.47
2022-07-25T07:43:49.131Z,95574.78
2022-07-25T07:45:52.105Z,95577.00
2022-07-25T07:47:56.072Z,95575.72
2022-07-25T07:49:59.007Z,95558.59
2022-07-25T07:52:01.839Z,95429.41
2022-07-25T07:54:22.488Z,95560.38
2022-07-25T07:56:26.702Z,95573.47
2022-07-25T07:58:30.692Z,95515.69
2022-07-25T08:00:36.050Z,95566.84
2022-07-25T08:02:44.302Z,95451.28
2022-07-25T08:04:47.055Z,95564.88
2022-07-25T08:06:49.904Z,95559.97
2022-07-25T08:08:52.689Z,95558.47
2022-07-25T08:10:58.739Z,95562.53
2022-07-25T08:13:12.509Z,95560.81
2022-07-25T08:15:15.694Z,95569.19
2022-07-25T08:17:19.108Z,95555.47
2022-07-25T08:19:21.971Z,95561.56
2022-07-25T08:21:24.782Z,95564.00
2022-07-25T08:23:28.849Z,95565.34
2022-07-25T08:25:32.263Z,95474.63
2022-07-25T08:27:35.430Z,95568.31
2022-07-25T08:29:39.695Z,95562.44
2022-07-25T08:31:42.722Z,95568.44
2022-07-25T08:33:45.706Z,95565.00
2022-07-25T08:35:51.775Z,95567.06
2022-07-25T08:37:55.701Z,95527.41
2022-07-25T08:39:58.715Z,95614.44
2022-07-25T08:42:02.234Z,95574.56
2022-07-25T08:44:06.179Z,95564.72
2022-07-25T08:46:11.005Z,95454.00
2022-07-25T08:48:13.947Z,95573.97
2022-07-25T08:50:20.756Z,95560.50
2022-07-25T08:52:24.119Z,95522.06
2022-07-25T08:54:27.256Z,95566.59
2022-07-25T08:56:30.111Z,95569.03
2022-07-25T08:58:33.001Z,95559.94
2022-07-25T09:00:35.836Z,95559.97
2022-07-25T09:02:40.326Z,95542.88
2022-07-25T09:04:43.424Z,95545.22
2022-07-25T09:06:51.485Z,95549.56
2022-07-25T09:08:56.794Z,95542.78
2022-07-25T09:10:59.839Z,95544.72
2022-07-25T09:13:05.078Z,95540.31
2022-07-25T09:15:09.565Z,95530.00
2022-07-25T09:17:22.292Z,95538.31
2022-07-25T09:19:31.591Z,95537.09
2022-07-25T09:21:34.592Z,95511.69
2022-07-25T09:23:39.599Z,95529.22
2022-07-25T09:25:42.899Z,95540.31
2022-07-25T09:27:45.685Z,95543.91
2022-07-25T09:29:48.573Z,95530.00
2022-07-25T09:31:52.093Z,95530.75
2022-07-25T09:33:59.422Z,95527.16
2022-07-25T09:36:11.872Z,95531.38
2022-07-25T09:38:17.181Z,95491.72
2022-07-25T09:40:20.002Z,95520.56
2022-07-25T09:42:25.542Z,95514.44
2022-07-25T09:44:30.328Z,95514.81
2022-07-25T09:46:34.003Z,95510.72
2022-07-25T09:48:38.004Z,95519.41
2022-07-25T09:50:40.820Z,95513.31
2022-07-25T09:52:45.881Z,95521.69
2022-07-25T09:54:48.749Z,95512.91
2022-07-25T09:56:51.578Z,95530.94
2022-07-25T09:58:54.442Z,95527.81
2022-07-25T10:01:01.425Z,95529.19
2022-07-25T10:03:18.524Z,95519.59
2022-07-25T10:05:38.924Z,95512.56
2022-07-25T10:07:46.806Z,95521.97
2022-07-25T10:09:51.885Z,95524.84
2022-07-25T10:12:08.814Z,95452.19
2022-07-25T10:14:12.845Z,95501.25
2022-07-25T10:16:18.293Z,95512.34
2022-07-25T10:18:23.306Z,95534.00
2022-07-25T10:20:29.852Z,95486.28
2022-07-25T10:22:58.626Z,95467.44
2022-07-25T10:25:11.505Z,95519.97
2022-07-25T10:27:21.883Z,95509.34
2022-07-25T10:29:35.222Z,95447.25
2022-07-25T10:31:47.677Z,95516.63
2022-07-25T10:33:57.343Z,95512.56
2022-07-25T10:36:07.444Z,95490.09
2022-07-25T10:38:10.580Z,95502.84
2022-07-25T10:40:26.896Z,95491.69
2022-07-25T10:42:35.365Z,95489.03
2022-07-25T10:44:44.059Z,95483.56
2022-07-25T10:46:47.192Z,95491.19
2022-07-25T10:48:59.585Z,95497.66
2022-07-25T10:51:05.859Z,95408.19
2022-07-25T10:53:09.264Z,95472.41
2022-07-25T10:55:22.927Z,95477.88
2022-07-25T10:57:31.757Z,95492.75
2022-07-25T10:59:36.571Z,95487.38
2022-07-25T11:01:40.583Z,95477.31
2022-07-25T11:03:45.712Z,95479.44
2022-07-25T11:05:48.901Z,95433.28
2022-07-25T11:08:19.091Z,95473.59
2022-07-25T11:10:16.189Z,95462.41
2022-07-25T11:12:19.528Z,95461.38
2022-07-25T11:14:25.617Z,95461.72
2022-07-25T11:16:28.659Z,95463.00
2022-07-25T11:18:36.550Z,95447.75
2022-07-25T11:20:39.291Z,95451.81
2022-07-25T11:22:42.069Z,95470.66
2022-07-25T11:24:46.971Z,95448.16
2022-07-25T11:26:51.312Z,95449.22
2022-07-25T11:28:54.697Z,95452.72
2022-07-25T11:31:05.324Z,95455.16
2022-07-25T11:33:08.223Z,95444.53
2022-07-25T11:35:13.076Z,95441.84
2022-07-25T11:37:16.768Z,95441.59
2022-07-25T11:39:19.934Z,95419.53
2022-07-25T11:41:30.562Z,95324.75
2022-07-25T11:43:33.518Z,95440.38
2022-07-25T11:45:37.214Z,95441.72
2022-07-25T11:47:41.487Z,95442.19
2022-07-25T11:49:45.631Z,95422.59
2022-07-25T11:51:48.448Z,95438.66
2022-07-25T11:53:52.876Z,95438.00
2022-07-25T11:55:55.778Z,95436.19
2022-07-25T11:58:01.195Z,95428.44
2022-07-25T12:00:07.095Z,95426.78
2022-07-25T12:02:22.759Z,95329.66
2022-07-25T12:04:27.340Z,95427.47
2022-07-25T12:06:30.715Z,95424.25
2022-07-25T12:08:39.533Z,95427.28
2022-07-25T12:10:44.539Z,95427.41
2022-07-25T12:12:49.760Z,95437.66
2022-07-25T12:14:53.129Z,95434.19
2022-07-25T12:16:56.129Z,95377.16
2022-07-25T12:18:59.056Z,95423.44
2022-07-25T12:21:03.261Z,95422.03
2022-07-25T12:23:09.490Z,95420.03
2022-07-25T12:25:13.119Z,95431.97
2022-07-25T12:27:16.009Z,95417.91
2022-07-25T12:29:19.109Z,95427.56
2022-07-25T12:31:22.226Z,95432.38
2022-07-25T12:33:25.397Z,95428.75
2022-07-25T12:35:28.662Z,95339.31
2022-07-25T12:37:33.205Z,95434.16
2022-07-25T12:39:35.974Z,95440.84
2022-07-25T12:41:40.003Z,95447.72
2022-07-25T12:43:42.762Z,95321.56
2022-07-25T12:45:45.640Z,95447.72
2022-07-25T12:47:49.358Z,95445.44
2022-07-25T12:49:52.647Z,95459.31
2022-07-25T12:51:58.204Z,95453.25
2022-07-25T12:54:02.525Z,95446.94
2022-07-25T12:56:05.904Z,95441.78
2022-07-25T12:58:08.970Z,95435.00
2022-07-25T13:00:15.322Z,95447.94
2022-07-25T13:02:18.252Z,95435.88
2022-07-25T13:04:21.274Z,95416.38
2022-07-25T13:06:24.295Z,95435.41
2022-07-25T13:08:27.534Z,95436.84
2022-07-25T13:10:31.899Z,95429.78
2022-07-25T13:12:34.675Z,95425.78
2022-07-25T13:14:37.461Z,95425.19
2022-07-25T13:16:40.378Z,95431.94
2022-07-25T13:18:44.335Z,95384.75
2022-07-25T13:20:47.238Z,95423.84
2022-07-25T13:22:50.055Z,95427.72
2022-07-25T13:24:53.156Z,95424.50
2022-07-25T13:26:57.421Z,95429.69
2022-07-25T13:29:00.802Z,95415.06
2022-07-25T13:31:06.943Z,95425.31
2022-07-25T13:33:10.570Z,95433.28
2022-07-25T13:35:17.698Z,95430.97
2022-07-25T13:37:23.109Z,95440.25
2022-07-25T13:39:27.129Z,95425.50
2022-07-25T13:41:29.949Z,95421.38
2022-07-25T13:43:34.114Z,95421.09
2022-07-25T13:45:37.125Z,95434.31
2022-07-25T13:47:40.011Z,95435.03
2022-07-25T13:49:42.900Z,95358.03
2022-07-25T13:51:45.846Z,95427.50
2022-07-25T13:53:48.778Z,95432.38
2022-07-25T13:55:52.147Z,95424.97
2022-07-25T13:57:55.484Z,95428.47
2022-07-25T13:59:59.666Z,95425.59
2022-07-25T14:02:02.470Z,95421.63
2022-07-25T14:04:05.378Z,95266.25
2022-07-25T14:06:11.447Z,95421.44
2022-07-25T14:08:14.285Z,95418.44
2022-07-25T14:10:17.079Z,95309.84
2022-07-25T14:12:19.927Z,95389.31
2022-07-25T14:14:22.716Z,95307.72
2022-07-25T14:16:26.958Z,95424.03
2022-07-25T14:18:30.629Z,95403.19
2022-07-25T14:20:33.959Z,95259.72
2022-07-25T14:22:36.869Z,95096.38
2022-07-25T14:24:39.835Z,95273.44
2022-07-25T14:26:42.720Z,95353.00
2022-07-25T14:28:45.625Z,95404.84
2022-07-25T14:30:48.476Z,95405.00
2022-07-25T14:32:52.649Z,95362.09
2022-07-25T14:34:55.416Z,95400.84
2022-07-25T14:36:58.268Z,95413.91
2022-07-25T14:39:01.147Z,95381.81
2022-07-25T14:41:06.712Z,95395.53
2022-07-25T14:43:13.453Z,95392.34
2022-07-25T14:45:18.028Z,95398.50
2022-07-25T14:47:21.563Z,95216.56
2022-07-25T14:49:28.977Z,95253.09
2022-07-25T14:51:32.931Z,95364.53
2022-07-25T14:53:36.090Z,95340.84
2022-07-25T14:55:38.954Z,95366.03
2022-07-25T14:57:41.768Z,95393.84
2022-07-25T14:59:44.682Z,95289.88
2022-07-25T15:01:47.572Z,95390.16
2022-07-25T15:03:50.397Z,95388.28
2022-07-25T15:05:54.626Z,95386.19
2022-07-25T15:07:57.447Z,95182.66
2022-07-25T15:10:00.497Z,95385.97
2022-07-25T15:12:03.391Z,95334.94
2022-07-25T15:14:06.145Z,95312.00
2022-07-25T15:16:09.274Z,95377.72
2022-07-25T15:18:14.094Z,95390.47
2022-07-25T15:20:17.107Z,95379.38
2022-07-25T15:22:21.420Z,95376.50
2022-07-25T15:24:28.954Z,95382.81
2022-07-25T15:26:32.329Z,95389.66
2022-07-25T15:28:37.983Z,95387.19
2022-07-25T15:30:41.929Z,95378.47
2022-07-25T15:32:45.786Z,95389.13
2022-07-25T15:34:48.536Z,95385.09
2022-07-25T15:36:52.175Z,95371.44
2022-07-25T15:38:56.321Z,95389.91
2022-07-25T15:40:59.344Z,95398.28
2022-07-25T15:43:02.306Z,95399.19
2022-07-25T15:45:33.495Z,95393.50
2022-07-25T15:47:28.722Z,95172.28
2022-07-25T15:49:31.505Z,94537.88
2022-07-25T15:51:34.449Z,95399.25
2022-07-25T15:53:37.598Z,95262.06
2022-07-25T15:55:42.845Z,95395.94
2022-07-25T15:57:45.695Z,95403.75
2022-07-25T15:59:48.552Z,95392.88
2022-07-25T16:01:51.492Z,95373.31
2022-07-25T16:03:55.278Z,95435.41
2022-07-25T16:05:58.928Z,95433.50
2022-07-25T16:08:01.954Z,95375.41
2022-07-25T16:10:06.239Z,95433.19
2022-07-25T16:12:11.404Z,95426.91
2022-07-25T16:14:14.184Z,95433.28
2022-07-25T16:16:17.199Z,95454.81
2022-07-25T16:18:20.079Z,95423.91
2022-07-25T16:20:23.967Z,95416.38
2022-07-25T16:22:27.133Z,95416.75
2022-07-25T16:24:29.952Z,95419.94
2022-07-25T16:26:32.844Z,95419.94
2022-07-25T16:28:37.436Z,95329.13
2022-07-25T16:30:40.279Z,95415.16
2022-07-25T16:32:43.656Z,95315.63
2022-07-25T16:34:47.221Z,95423.81
2022-07-25T16:36:50.242Z,95422.63
2022-07-25T16:38:53.432Z,95323.16
2022-07-25T16:40:56.313Z,95423.50
2022-07-25T16:42:59.651Z,95429.47
2022-07-25T16:45:04.497Z,95364.31
2022-07-25T16:47:08.442Z,95244.44
2022-07-25T16:49:13.350Z,95446.34
2022-07-25T16:51:16.504Z,94934.19
2022-07-25T16:53:20.501Z,95449.53
2022-07-25T16:55:23.381Z,95453.94
2022-07-25T16:57:26.293Z,95457.72
2022-07-25T16:59:29.070Z,95453.75
2022-07-25T17:01:34.581Z,95450.41
2022-07-25T17:03:37.609Z,95232.84
2022-07-25T17:05:41.469Z,95350.13
2022-07-25T17:07:44.696Z,95352.91
2022-07-25T17:09:47.551Z,95357.25
2022-07-25T17:11:50.457Z,95444.06
2022-07-25T17:13:53.337Z,95446.03
2022-07-25T17:15:56.209Z,95449.28
2022-07-25T17:18:00.732Z,95448.84
2022-07-25T17:20:04.089Z,95448.06
2022-07-25T17:22:07.616Z,95346.13
2022-07-25T17:24:11.147Z,95377.88
2022-07-25T17:26:14.208Z,95443.72
2022-07-25T17:28:17.256Z,95235.25
2022-07-25T17:30:20.104Z,95350.81
2022-07-25T17:32:26.444Z,95185.72
2022-07-25T17:34:34.228Z,95387.50
2022-07-25T17:36:37.098Z,95429.66
2022-07-25T17:38:39.891Z,95444.91
2022-07-25T17:40:42.773Z,95439.59
2022-07-25T17:42:47.354Z,95441.09
2022-07-25T17:44:50.294Z,95447.66
2022-07-25T17:46:53.513Z,95343.94
2022-07-25T17:48:56.533Z,95423.56
2022-07-25T17:51:01.001Z,95441.84
2022-07-25T17:53:03.854Z,95327.63
2022-07-25T17:55:07.344Z,95462.56
2022-07-25T17:57:10.968Z,95426.00
2022-07-25T17:59:14.245Z,95471.94
2022-07-25T18:01:17.160Z,95469.34
2022-07-25T18:03:20.139Z,95471.09
2022-07-25T18:05:23.168Z,95483.34
2022-07-25T18:07:27.864Z,95467.03
2022-07-25T18:09:31.025Z,95488.53
2022-07-25T18:11:34.203Z,95262.75
2022-07-25T18:13:37.825Z,95491.16
2022-07-25T18:15:40.830Z,95501.34
2022-07-25T18:17:44.488Z,95433.78
2022-07-25T18:19:47.385Z,95351.38
2022-07-25T18:21:50.187Z,95504.94
2022-07-25T18:23:54.447Z,95450.88
2022-07-25T18:25:57.568Z,95496.88
2022-07-25T18:28:01.558Z,95286.75
2022-07-25T18:30:06.012Z,95520.41
2022-07-25T18:32:09.167Z,95400.19
2022-07-25T18:34:11.995Z,95518.81
2022-07-25T18:36:14.850Z,95554.53
2022-07-25T18:38:17.794Z,95280.38
2022-07-25T18:40:23.235Z,95474.53
2022-07-25T18:42:29.710Z,95527.66
2022-07-25T18:44:32.997Z,95302.75
2022-07-25T18:46:37.275Z,95534.38
2022-07-25T18:48:42.111Z,95536.56
2022-07-25T18:50:45.048Z,95461.00
2022-07-25T18:52:48.273Z,95486.38
2022-07-25T18:54:51.111Z,95455.66
2022-07-25T18:56:55.363Z,95441.63
2022-07-25T18:58:58.391Z,95421.41
2022-07-25T19:01:03.308Z,95452.00
2022-07-25T19:03:06.066Z,95443.63
2022-07-25T19:05:10.094Z,95515.06
2022-07-25T19:07:13.678Z,95561.78
2022-07-25T19:09:16.480Z,95489.31
2022-07-25T19:11:19.351Z,95575.81
2022-07-25T19:13:47.663Z,95580.59
2022-07-25T19:15:46.441Z,95583.50
2022-07-25T19:17:49.600Z,95577.03
2022-07-25T19:19:52.884Z,95594.88
2022-07-25T19:21:55.769Z,95598.38
2022-07-25T19:23:58.543Z,95590.69
2022-07-25T19:26:02.135Z,95579.00
2022-07-25T19:28:05.614Z,95596.09
2022-07-25T19:30:15.280Z,95561.09
2022-07-25T19:32:20.075Z,95615.78
2022-07-25T19:34:22.773Z,95544.75
2022-07-25T19:36:25.778Z,95377.34
2022-07-25T19:38:29.040Z,95638.84
2022-07-25T19:40:33.367Z,95566.25
2022-07-25T19:42:36.224Z,95618.78
2022-07-25T19:44:38.921Z,95463.78
2022-07-25T19:46:43.126Z,95629.97
2022-07-25T19:48:45.971Z,95488.75
2022-07-25T19:50:48.991Z,95633.13
2022-07-25T19:52:51.855Z,95634.84
2022-07-25T19:54:54.941Z,95638.13
2022-07-25T19:56:57.825Z,95629.56
2022-07-25T19:59:02.981Z,95638.72
2022-07-25T20:01:08.703Z,95639.16
2022-07-25T20:03:12.830Z,95639.41
2022-07-25T20:05:18.432Z,95442.44
2022-07-25T20:07:24.142Z,95651.63
2022-07-25T20:09:27.227Z,95654.19
2022-07-25T20:11:37.701Z,95427.91
2022-07-25T20:13:40.871Z,95486.16
2022-07-25T20:15:43.915Z,95539.09
2022-07-25T20:17:46.781Z,95149.91
2022-07-25T20:19:51.800Z,95387.28
2022-07-25T20:21:54.599Z,95256.75
2022-07-25T20:23:57.492Z,95613.34
2022-07-25T20:26:02.290Z,95263.34
2022-07-25T20:28:05.701Z,95384.28
2022-07-25T20:30:10.307Z,95642.88
2022-07-25T20:32:13.142Z,95667.94
2022-07-25T20:34:16.607Z,95661.09
2022-07-25T20:36:23.759Z,95709.31
2022-07-25T20:38:28.389Z,95667.91
2022-07-25T20:40:31.312Z,95333.41
2022-07-25T20:42:35.647Z,95662.63
2022-07-25T20:44:38.590Z,95672.63
2022-07-25T20:46:41.433Z,95677.28
2022-07-25T20:48:44.493Z,95479.41
2022-07-25T20:50:47.561Z,95796.03
2022-07-25T20:52:52.228Z,95687.50
2022-07-25T20:54:55.101Z,95317.88
2022-07-25T20:56:57.866Z,95476.78
2022-07-25T20:59:00.737Z,95392.25
2022-07-25T21:01:03.639Z,95332.25
2022-07-25T21:03:08.280Z,95461.59
2022-07-25T21:05:11.228Z,95688.94
2022-07-25T21:07:14.039Z,95690.19
2022-07-25T21:09:18.482Z,95692.47
2022-07-25T21:11:21.466Z,95541.00
2022-07-25T21:13:24.309Z,95772.13
2022-07-25T21:15:27.421Z,95536.13
2022-07-25T21:17:30.597Z,95726.91
2022-07-25T21:19:33.480Z,95559.78
2022-07-25T21:21:37.123Z,95727.09
2022-07-25T21:23:40.003Z,95724.28
2022-07-25T21:25:44.270Z,95736.06
2022-07-25T21:27:47.138Z,95724.97
2022-07-25T21:29:50.042Z,94599.84
2022-07-25T21:31:52.879Z,95776.56
2022-07-25T21:33:57.288Z,95721.97
2022-07-25T21:36:00.153Z,95266.66
2022-07-25T21:38:03.134Z,95734.34
2022-07-25T21:40:07.245Z,95736.97
2022-07-25T21:42:11.720Z,95601.38
2022-07-25T21:44:14.581Z,95754.78
2022-07-25T21:46:17.543Z,95764.16
2022-07-25T21:48:40.542Z,95174.63
2022-07-25T21:50:45.683Z,95695.56
2022-07-25T21:52:50.033Z,95658.97
2022-07-25T21:54:53.002Z,95462.72
2022-07-25T21:56:55.842Z,95707.13
2022-07-25T21:59:00.351Z,95754.22
2022-07-25T22:01:03.374Z,95759.09
2022-07-25T22:03:06.255Z,95753.28
2022-07-25T22:05:09.556Z,95409.75
2022-07-25T22:07:12.400Z,95756.53
2022-07-25T22:09:15.344Z,95543.66
2022-07-25T22:11:39.232Z,95760.69
2022-07-25T22:13:43.135Z,95765.84
2022-07-25T22:15:47.541Z,95756.28
2022-07-25T22:17:50.368Z,95524.81
2022-07-25T22:19:53.294Z,95756.91
2022-07-25T22:21:56.132Z,95764.06
2022-07-25T22:23:58.980Z,95634.75
2022-07-25T22:26:03.122Z,95753.03
2022-07-25T22:28:06.418Z,95753.91
2022-07-25T22:30:19.266Z,95752.56
2022-07-25T22:32:23.795Z,95648.28
2022-07-25T22:34:27.094Z,95382.00
2022-07-25T22:36:29.885Z,95756.31
2022-07-25T22:38:32.638Z,95749.00
2022-07-25T22:40:35.435Z,95746.63
2022-07-25T22:42:38.200Z,95751.25
2022-07-25T22:44:41.033Z,95752.31
2022-07-25T22:46:43.970Z,95752.94
2022-07-25T22:48:48.224Z,95757.00
2022-07-25T22:50:51.102Z,95762.22
2022-07-25T22:52:53.932Z,95772.59
2022-07-25T22:54:56.731Z,95766.03
2022-07-25T22:56:59.561Z,95762.78
2022-07-25T22:59:02.575Z,95760.63
2022-07-25T23:01:05.430Z,95365.41
2022-07-25T23:03:09.493Z,95759.22
2022-07-25T23:05:13.732Z,95266.81
2022-07-25T23:07:16.545Z,95766.78
2022-07-25T23:09:19.456Z,95786.13
2022-07-25T23:11:22.268Z,95791.13
2022-07-25T23:13:25.114Z,95752.31
2022-07-25T23:15:28.239Z,95807.91
2022-07-25T23:17:50.844Z,95815.84
2022-07-25T23:19:55.398Z,95689.53
2022-07-25T23:21:59.585Z,95812.91
2022-07-25T23:24:02.445Z,95813.41
2022-07-25T23:26:05.277Z,95815.69
2022-07-25T23:28:08.173Z,95822.25
2022-07-25T23:30:11.822Z,95821.75
2022-07-25T23:32:14.818Z,95823.78
2022-07-25T23:34:17.666Z,95831.28
2022-07-25T23:36:20.566Z,95833.34
2022-07-25T23:38:24.870Z,95826.81
2022-07-25T23:40:27.722Z,95836.91
2022-07-25T23:42:30.567Z,95837.03
2022-07-25T23:44:34.428Z,95835.03
2022-07-25T23:46:39.559Z,95828.09
2022-07-25T23:48:42.714Z,95830.41
2022-07-25T23:50:45.583Z,95843.97
2022-07-25T23:52:48.444Z,95845.50
2022-07-25T23:54:53.310Z,95856.66
2022-07-25T23:56:57.595Z,95865.16
2022-07-25T23:59:00.411Z,95863.81
